Time;durP1;ratioP1;P1;durP2;ratioP2;P2;SDS_P1;SDS_P2;PMS_P1;PMS_P2;Temp;Humidity;BMP_temperature;BMP_pressure;BME280_temperature;BME280_humidity;BME280_pressure;Samples;Min_cycle;Max_cycle;Signal;HPM_P1;HPM_P2
2022/05/30 00:01:10;;;;;;;9.32;2.17;;;8.40;99.90;;;;;;5052655;28;20047;-92
2022/05/30 00:03:37;;;;;;;8.13;2.15;;;8.50;99.90;;;;;;5056709;28;20131;-94
2022/05/30 00:06:08;;;;;;;10.52;2.40;;;8.40;99.90;;;;;;5055163;28;20059;-95
2022/05/30 00:08:34;;;;;;;7.97;2.67;;;8.00;99.90;;;;;;5070077;28;20113;-93
2022/05/30 00:11:07;;;;;;;7.97;1.60;;;10.50;99.90;;;;;;5053544;28;20060;-92
2022/05/30 00:13:37;;;;;;;7.15;1.70;;;9.90;99.90;;;;;;5053927;28;20079;-86
2022/05/30 00:16:23;;;;;;;6.03;2.08;;;8.20;99.90;;;;;;5070149;28;20503;-94
2022/05/30 00:18:50;;;;;;;6.80;1.58;;;8.20;99.90;;;;;;5067663;28;20415;-88
2022/05/30 00:21:24;;;;;;;8.05;1.88;;;8.50;99.90;;;;;;5051667;28;20041;-90
2022/05/30 00:23:53;;;;;;;5.25;2.05;;;8.40;99.90;;;;;;5053552;28;20052;-93
2022/05/30 00:26:20;;;;;;;8.25;1.65;;;7.90;99.90;;;;;;5071907;28;20162;-95
2022/05/30 00:28:46;;;;;;;11.00;2.22;;;8.30;99.90;;;;;;5053524;28;20037;-87
2022/05/30 00:31:13;;;;;;;7.60;1.83;;;8.30;99.90;;;;;;5052195;28;20040;-91
2022/05/30 00:33:40;;;;;;;4.30;1.60;;;8.20;99.90;;;;;;5052503;28;20519;-87
2022/05/30 00:36:06;;;;;;;5.30;1.77;;;10.00;99.90;;;;;;5052705;28;20033;-95
2022/05/30 00:38:32;;;;;;;6.45;1.90;;;8.20;99.90;;;;;;5035276;28;20179;-91
2022/05/30 00:40:57;;;;;;;8.57;2.05;;;8.10;99.90;;;;;;5068690;28;20536;-86
2022/05/30 00:43:29;;;;;;;6.38;1.85;;;8.10;99.90;;;;;;5052619;28;20048;-93
2022/05/30 00:45:58;;;;;;;5.68;1.30;;;7.80;99.90;;;;;;5051044;28;20196;-89
2022/05/30 00:48:31;;;;;;;5.40;1.55;;;8.00;99.90;;;;;;5053225;28;20037;-88
2022/05/30 00:51:07;;;;;;;6.07;1.48;;;9.30;99.90;;;;;;5044987;28;20135;-91
2022/05/30 00:53:34;;;;;;;5.18;1.40;;;8.30;99.90;;;;;;5069372;28;20492;-88
2022/05/30 00:56:02;;;;;;;4.97;1.45;;;9.50;99.90;;;;;;5070108;28;20440;-94
2022/05/30 00:58:33;;;;;;;4.93;0.95;;;10.50;99.90;;;;;;5053113;28;20374;-86
2022/05/30 01:00:59;;;;;;;3.42;1.15;;;9.70;99.90;;;;;;5042186;28;20037;-92
2022/05/30 01:08:54;;;;;;;;;;;7.90;99.90;;;;;;5074408;28;20052;-90
2022/05/30 01:11:19;;;;;;;3.10;0.75;;;7.70;99.90;;;;;;5057695;28;19920;-94
2022/05/30 01:13:45;;;;;;;5.22;1.15;;;7.80;99.90;;;;;;5068901;28;20048;-95
2022/05/30 01:16:11;;;;;;;4.75;0.95;;;8.70;99.90;;;;;;5054772;28;20052;-93
2022/05/30 01:18:54;;;;;;;2.90;0.70;;;7.70;99.90;;;;;;5055513;28;20044;-92
2022/05/30 01:22:01;;;;;;;2.05;0.68;;;7.80;99.90;;;;;;5056196;28;20139;-89
2022/05/30 01:24:44;;;;;;;3.10;0.65;;;7.80;99.90;;;;;;5055600;28;20084;-94
2022/05/30 01:27:19;;;;;;;6.38;1.10;;;7.70;99.90;;;;;;5066530;28;20048;-88
2022/05/30 01:29:52;;;;;;;3.40;0.60;;;7.80;99.90;;;;;;5055630;28;20329;-87
2022/05/30 01:32:23;;;;;;;3.30;0.75;;;7.80;99.90;;;;;;5071483;28;20036;-92
2022/05/30 01:34:49;;;;;;;3.78;0.55;;;8.40;99.90;;;;;;5051268;28;20045;-95
2022/05/30 01:37:15;;;;;;;2.88;0.68;;;7.80;99.90;;;;;;5068853;28;20033;-92
2022/05/30 01:39:40;;;;;;;2.83;0.68;;;7.80;99.90;;;;;;5053096;28;20411;-92
2022/05/30 01:42:07;;;;;;;3.90;0.30;;;7.80;99.90;;;;;;5073568;28;20037;-90
2022/05/30 01:44:33;;;;;;;6.47;0.80;;;6.50;99.90;;;;;;5070806;28;20040;-94
2022/05/30 01:46:58;;;;;;;3.20;0.70;;;7.60;99.90;;;;;;5069842;28;20111;-92
2022/05/30 01:49:24;;;;;;;1.48;0.57;;;7.90;99.90;;;;;;5066526;28;20105;-85
2022/05/30 01:51:53;;;;;;;4.75;0.88;;;8.00;99.90;;;;;;5050538;28;20059;-92
2022/05/30 01:54:19;;;;;;;4.65;0.98;;;9.30;99.90;;;;;;5051708;28;20044;-94
2022/05/30 01:56:46;;;;;;;2.70;0.40;;;8.00;99.90;;;;;;5050804;28;20041;-93
2022/05/30 01:59:12;;;;;;;1.20;0.30;;;8.60;99.90;;;;;;5050727;28;20037;-93
2022/05/30 02:01:39;;;;;;;1.23;0.35;;;9.30;99.90;;;;;;5050029;28;20041;-94
2022/05/30 02:04:05;;;;;;;1.58;0.40;;;7.80;99.90;;;;;;5050351;28;20040;-91
2022/05/30 02:06:32;;;;;;;3.67;0.35;;;8.00;99.90;;;;;;5068993;28;20047;-95
2022/05/30 02:08:58;;;;;;;1.83;0.50;;;9.70;99.90;;;;;;5049827;28;20094;-91
2022/05/30 02:11:24;;;;;;;2.70;0.50;;;9.80;99.90;;;;;;5070801;28;20054;-94
2022/05/30 02:13:50;;;;;;;1.63;0.63;;;7.90;99.90;;;;;;5071597;28;20049;-92
2022/05/30 02:19:06;;;;;;;2.35;0.60;;;9.00;99.90;;;;;;5070381;28;20055;-93
2022/05/30 02:21:34;;;;;;;2.70;0.57;;;7.40;99.90;;;;;;5055010;28;20400;-87
2022/05/30 02:24:05;;;;;;;5.45;0.95;;;9.60;99.90;;;;;;5066604;28;20044;-89
2022/05/30 02:26:31;;;;;;;2.42;0.50;;;7.90;99.90;;;;;;5055394;28;20052;-90
2022/05/30 02:28:56;;;;;;;0.70;0.50;;;7.80;99.90;;;;;;5074990;28;20085;-91
2022/05/30 02:31:22;;;;;;;1.58;0.55;;;7.70;99.90;;;;;;5070584;28;20040;-92
2022/05/30 02:36:41;;;;;;;1.35;0.43;;;7.20;99.90;;;;;;5084957;28;20044;-91
2022/05/30 02:39:08;;;;;;;2.17;0.80;;;7.30;99.90;;;;;;5052523;28;20040;-92
2022/05/30 02:41:34;;;;;;;5.90;0.88;;;7.50;99.90;;;;;;5072147;28;20040;-87
2022/05/30 02:44:00;;;;;;;2.47;1.00;;;7.30;99.90;;;;;;5053681;28;20043;-92
2022/05/30 02:46:26;;;;;;;3.78;0.50;;;8.10;99.90;;;;;;5069545;28;20033;-92
2022/05/30 02:48:51;;;;;;;2.03;0.70;;;7.60;99.90;;;;;;5052702;28;20367;-92
2022/05/30 02:51:17;;;;;;;5.43;1.13;;;8.70;99.90;;;;;;5053813;28;20036;-92
2022/05/30 02:53:43;;;;;;;3.42;0.70;;;9.20;99.90;;;;;;5069100;28;20044;-90
2022/05/30 02:56:12;;;;;;;0.93;0.35;;;7.60;99.90;;;;;;5053653;28;20032;-90
2022/05/30 02:58:38;;;;;;;1.35;0.65;;;8.40;99.90;;;;;;5068823;28;20509;-91
2022/05/30 03:01:04;;;;;;;7.07;0.93;;;7.50;99.90;;;;;;5063152;28;20046;-90
2022/05/30 03:03:30;;;;;;;4.50;0.50;;;9.40;99.90;;;;;;5053288;28;20524;-88
2022/05/30 03:05:56;;;;;;;2.58;0.60;;;7.50;99.90;;;;;;5069705;28;20041;-92
2022/05/30 03:08:22;;;;;;;2.20;0.60;;;8.70;99.90;;;;;;5053693;28;20105;-91
2022/05/30 03:10:48;;;;;;;2.35;0.60;;;8.90;99.90;;;;;;5072783;28;20123;-91
2022/05/30 03:13:14;;;;;;;3.63;1.65;;;7.50;99.90;;;;;;5059495;28;20078;-90
2022/05/30 03:15:39;;;;;;;3.25;0.82;;;7.50;99.90;;;;;;5072788;28;20059;-87
2022/05/30 03:18:06;;;;;;;2.45;0.63;;;7.50;99.90;;;;;;5069554;28;20199;-83
2022/05/30 03:20:32;;;;;;;3.65;1.42;;;7.50;99.90;;;;;;5068521;28;20144;-91
2022/05/30 03:22:58;;;;;;;3.70;1.10;;;8.10;99.90;;;;;;5068970;28;20054;-90
2022/05/30 03:25:24;;;;;;;3.60;0.90;;;7.40;99.90;;;;;;5052167;28;20074;-90
2022/05/30 03:27:52;;;;;;;3.03;1.13;;;9.10;99.90;;;;;;5066700;28;20495;-91
2022/05/30 03:30:18;;;;;;;4.57;0.85;;;7.10;99.90;;;;;;5069231;28;20033;-92
2022/05/30 03:32:43;;;;;;;3.30;0.95;;;6.30;99.90;;;;;;5068901;28;20210;-91
2022/05/30 03:35:11;;;;;;;1.67;0.90;;;7.00;99.90;;;;;;5069893;28;20032;-89
2022/05/30 03:37:38;;;;;;;2.60;1.42;;;7.40;99.90;;;;;;5071656;28;20045;-92
2022/05/30 03:40:07;;;;;;;2.83;1.00;;;7.20;99.90;;;;;;5054862;28;20036;-93
2022/05/30 03:42:33;;;;;;;3.63;1.00;;;7.40;99.90;;;;;;5053051;28;20042;-90
2022/05/30 03:44:59;;;;;;;3.13;0.52;;;7.50;99.90;;;;;;5069029;28;20051;-90
2022/05/30 03:47:25;;;;;;;6.03;1.25;;;7.40;99.90;;;;;;5071117;28;20517;-89
2022/05/30 03:49:58;;;;;;;2.13;0.70;;;9.20;99.90;;;;;;5068601;28;20052;-92
2022/05/30 03:52:24;;;;;;;4.90;0.93;;;7.70;99.90;;;;;;5052727;28;20454;-90
2022/05/30 03:54:50;;;;;;;4.57;1.13;;;7.50;99.90;;;;;;5052005;28;20041;-86
2022/05/30 03:57:15;;;;;;;4.65;1.02;;;7.50;99.90;;;;;;5068859;28;20041;-90
2022/05/30 03:59:41;;;;;;;7.20;0.93;;;9.20;99.90;;;;;;5051413;28;20056;-90
2022/05/30 04:02:06;;;;;;;4.40;0.98;;;9.30;99.90;;;;;;5051655;28;20058;-86
2022/05/30 04:04:32;;;;;;;4.53;0.93;;;9.00;99.90;;;;;;5052316;28;20043;-89
2022/05/30 04:06:58;;;;;;;3.95;0.90;;;9.50;99.90;;;;;;5068082;28;20048;-89
2022/05/30 04:09:23;;;;;;;9.02;1.08;;;9.40;99.90;;;;;;5068331;28;20048;-90
2022/05/30 04:11:49;;;;;;;7.13;1.60;;;7.60;99.90;;;;;;5069655;28;20037;-89
2022/05/30 04:14:15;;;;;;;7.15;1.40;;;9.60;99.90;;;;;;5053823;28;20047;-91
2022/05/30 04:16:40;;;;;;;3.40;1.40;;;8.90;99.90;;;;;;5053082;28;20458;-89
2022/05/30 04:19:06;;;;;;;2.50;1.13;;;7.40;99.90;;;;;;5053048;28;20472;-91
2022/05/30 04:21:31;;;;;;;1.65;0.98;;;8.90;99.90;;;;;;5053478;28;20106;-91
2022/05/30 04:23:57;;;;;;;4.93;1.10;;;6.80;99.90;;;;;;5053584;28;20045;-91
2022/05/30 04:26:23;;;;;;;3.40;1.20;;;7.50;99.90;;;;;;5053897;28;20044;-92
2022/05/30 04:28:48;;;;;;;2.88;1.15;;;7.10;99.90;;;;;;5052804;28;20580;-89
2022/05/30 04:31:14;;;;;;;3.75;1.30;;;7.50;99.90;;;;;;5052618;28;20047;-89
2022/05/30 04:33:40;;;;;;;4.43;1.05;;;7.60;99.90;;;;;;5036489;28;20048;-79
2022/05/30 04:36:08;;;;;;;7.28;1.98;;;7.60;99.90;;;;;;5053388;28;20028;-92
2022/05/30 04:38:34;;;;;;;4.22;1.42;;;9.20;99.90;;;;;;5071275;28;20431;-94
2022/05/30 04:41:00;;;;;;;5.72;2.00;;;7.60;99.90;;;;;;5053631;28;20089;-91
2022/05/30 04:43:25;;;;;;;3.35;1.70;;;7.40;99.90;;;;;;5051632;28;20388;-84
2022/05/30 04:46:06;;;;;;;8.45;2.08;;;7.60;99.90;;;;;;5067613;28;20063;-90
2022/05/30 04:48:32;;;;;;;5.25;2.00;;;7.50;99.90;;;;;;5067994;28;20037;-92
2022/05/30 04:50:58;;;;;;;3.40;1.30;;;7.60;99.90;;;;;;5067266;28;20533;-88
2022/05/30 04:53:23;;;;;;;7.80;2.05;;;7.50;99.90;;;;;;5067557;28;20033;-91
2022/05/30 04:55:49;;;;;;;7.53;2.72;;;7.60;99.90;;;;;;5034467;28;20396;-92
2022/05/30 04:58:15;;;;;;;5.63;2.40;;;7.30;99.90;;;;;;5061695;28;20037;-85
2022/05/30 05:00:40;;;;;;;3.50;1.77;;;7.50;99.90;;;;;;5067362;28;20048;-88
2022/05/30 05:03:06;;;;;;;4.82;2.58;;;9.40;99.90;;;;;;5052727;28;20044;-89
2022/05/30 05:05:32;;;;;;;6.50;1.80;;;7.60;99.90;;;;;;5040546;28;20052;-90
2022/05/30 05:08:47;;;;;;;6.82;1.90;;;9.50;99.90;;;;;;5052443;28;20043;-93
2022/05/30 05:11:12;;;;;;;6.65;2.45;;;7.60;99.90;;;;;;5047312;28;20107;-88
2022/05/30 05:13:39;;;;;;;7.05;2.00;;;9.30;99.90;;;;;;5067430;28;20068;-89
2022/05/30 05:16:06;;;;;;;6.65;2.30;;;8.10;99.90;;;;;;5067789;28;20476;-86
2022/05/30 05:18:31;;;;;;;5.75;2.72;;;7.50;99.90;;;;;;5050838;28;20064;-91
2022/05/30 05:20:57;;;;;;;6.30;3.55;;;7.50;99.90;;;;;;5049852;28;20076;-90
2022/05/30 05:23:22;;;;;;;8.60;3.05;;;8.00;99.90;;;;;;5067959;28;20466;-88
2022/05/30 05:25:48;;;;;;;5.35;2.47;;;7.80;99.90;;;;;;5068051;28;20384;-91
2022/05/30 05:28:14;;;;;;;8.38;2.28;;;9.10;99.90;;;;;;5067161;28;20430;-89
2022/05/30 05:30:41;;;;;;;6.38;2.40;;;7.60;99.90;;;;;;5049735;28;20070;-89
2022/05/30 05:33:08;;;;;;;7.55;2.50;;;7.60;99.90;;;;;;5067528;28;20052;-91
2022/05/30 05:35:34;;;;;;;4.28;1.77;;;7.80;99.90;;;;;;5050589;28;20045;-83
2022/05/30 05:38:00;;;;;;;7.80;1.98;;;8.10;99.90;;;;;;5084554;28;20051;-95
2022/05/30 05:40:30;;;;;;;4.60;2.10;;;8.30;99.90;;;;;;5052965;28;20048;-86
2022/05/30 05:42:55;;;;;;;5.38;2.30;;;9.20;99.90;;;;;;5067539;28;20041;-85
2022/05/30 05:45:21;;;;;;;4.15;1.73;;;8.40;99.90;;;;;;5084457;28;20040;-86
2022/05/30 05:47:47;;;;;;;5.15;1.48;;;9.00;99.90;;;;;;5050561;28;20076;-89
2022/05/30 05:50:13;;;;;;;6.32;1.27;;;8.40;99.90;;;;;;5054182;28;20078;-93
2022/05/30 05:52:39;;;;;;;5.85;1.55;;;8.60;99.90;;;;;;5055057;28;20068;-83
2022/05/30 05:55:07;;;;;;;3.80;1.52;;;8.60;99.90;;;;;;5071383;28;20047;-89
2022/05/30 05:57:33;;;;;;;5.22;1.45;;;8.90;99.90;;;;;;5055001;28;20040;-92
2022/05/30 05:59:58;;;;;;;6.55;1.77;;;9.80;99.90;;;;;;5071096;28;20124;-89
2022/05/30 06:02:24;;;;;;;2.83;1.23;;;8.80;99.90;;;;;;5057343;28;20464;-89
2022/05/30 06:04:54;;;;;;;4.20;1.30;;;10.50;99.90;;;;;;5078003;28;20040;-90
2022/05/30 06:07:20;;;;;;;4.35;1.98;;;10.20;99.90;;;;;;5073091;28;20036;-93
2022/05/30 06:09:46;;;;;;;10.25;1.17;;;8.80;99.90;;;;;;5072792;28;20091;-89
2022/05/30 06:12:11;;;;;;;4.65;1.92;;;10.80;99.90;;;;;;5074914;28;20040;-93
2022/05/30 06:14:37;;;;;;;2.40;0.93;;;9.10;99.90;;;;;;5057762;28;20068;-93
2022/05/30 06:17:04;;;;;;;3.00;0.82;;;8.90;99.90;;;;;;5055186;28;20040;-92
2022/05/30 06:19:29;;;;;;;1.13;0.40;;;9.10;99.90;;;;;;5072737;28;20040;-89
2022/05/30 06:21:55;;;;;;;1.27;0.30;;;11.00;99.90;;;;;;5057505;28;20113;-87
2022/05/30 06:24:21;;;;;;;3.65;0.73;;;9.10;99.90;;;;;;5073521;28;20041;-87
2022/05/30 06:26:46;;;;;;;2.53;0.80;;;10.80;99.90;;;;;;5078344;28;20072;-93
2022/05/30 06:29:15;;;;;;;2.08;0.70;;;10.80;99.90;;;;;;5057466;28;20059;-93
2022/05/30 06:31:41;;;;;;;3.47;0.70;;;10.60;99.90;;;;;;5073303;28;20113;-82
2022/05/30 06:34:07;;;;;;;6.97;1.15;;;10.90;99.90;;;;;;5075490;28;20560;-91
2022/05/30 06:36:34;;;;;;;4.45;1.10;;;11.30;99.90;;;;;;5073288;28;20464;-94
2022/05/30 06:39:01;;;;;;;6.00;1.35;;;9.40;99.90;;;;;;5073520;28;20047;-86
2022/05/30 06:41:31;;;;;;;3.45;1.40;;;11.10;99.90;;;;;;5075666;28;20039;-90
2022/05/30 06:44:04;;;;;;;3.13;1.20;;;10.60;99.90;;;;;;5075069;28;20135;-93
2022/05/30 06:46:31;;;;;;;4.07;1.15;;;9.70;99.90;;;;;;5074463;28;20315;-82
2022/05/30 06:48:56;;;;;;;2.92;1.38;;;9.40;99.90;;;;;;5071025;28;20133;-83
2022/05/30 06:51:24;;;;;;;5.75;1.48;;;9.80;99.90;;;;;;5052671;28;20464;-95
2022/05/30 06:53:50;;;;;;;1.75;0.60;;;9.90;99.90;;;;;;5060605;28;20084;-87
2022/05/30 06:56:27;;;;;;;2.97;0.47;;;11.20;99.90;;;;;;5055867;28;20080;-92
2022/05/30 06:58:53;;;;;;;3.78;0.52;;;11.80;99.90;;;;;;5068356;28;20112;-85
2022/05/30 07:01:21;;;;;;;2.80;0.40;;;10.80;99.90;;;;;;5052949;28;20186;-78
2022/05/30 07:03:47;;;;;;;2.28;0.60;;;11.00;99.90;;;;;;5070444;28;20574;-93
2022/05/30 07:06:16;;;;;;;2.40;0.95;;;10.10;99.90;;;;;;5055003;28;20507;-75
2022/05/30 07:08:46;;;;;;;4.10;1.05;;;10.10;99.90;;;;;;5055546;28;20040;-85
2022/05/30 07:11:17;;;;;;;2.20;1.25;;;12.20;99.90;;;;;;5058604;28;20127;-84
2022/05/30 07:13:43;;;;;;;2.08;0.43;;;11.20;99.90;;;;;;5038648;28;20052;-75
2022/05/30 07:16:09;;;;;;;1.40;0.40;;;10.30;99.90;;;;;;5073101;28;20060;-93
2022/05/30 07:18:36;;;;;;;5.03;0.40;;;10.40;99.90;;;;;;5072034;28;20127;-75
2022/05/30 07:21:06;;;;;;;3.47;0.40;;;10.40;99.90;;;;;;5070054;28;20056;-84
2022/05/30 07:23:34;;;;;;;3.67;0.55;;;11.90;99.90;;;;;;5055631;28;20098;-76
2022/05/30 07:26:02;;;;;;;2.75;0.20;;;11.80;99.90;;;;;;5070934;28;20090;-82
2022/05/30 07:28:29;;;;;;;4.68;0.30;;;11.50;99.90;;;;;;5072082;28;20278;-78
2022/05/30 07:30:55;;;;;;;1.75;0.43;;;11.90;99.90;;;;;;5053112;28;20530;-86
2022/05/30 07:33:21;;;;;;;4.55;0.25;;;10.40;99.90;;;;;;5051957;28;20036;-82
2022/05/30 07:35:47;;;;;;;5.70;0.70;;;11.30;99.90;;;;;;5054872;28;20112;-76
2022/05/30 07:38:13;;;;;;;4.20;0.40;;;11.20;99.90;;;;;;5070777;28;20033;-76
2022/05/30 07:40:38;;;;;;;2.63;0.40;;;11.30;99.90;;;;;;5053475;28;20101;-76
2022/05/30 07:43:04;;;;;;;3.03;0.20;;;11.10;99.90;;;;;;5070635;28;20041;-76
2022/05/30 07:45:31;;;;;;;1.42;0.20;;;10.60;99.90;;;;;;5055097;28;20052;-75
2022/05/30 07:47:56;;;;;;;0.98;0.10;;;12.40;99.90;;;;;;5068629;28;20051;-92
2022/05/30 07:50:22;;;;;;;1.48;0.20;;;10.60;99.90;;;;;;5068624;28;20036;-80
2022/05/30 07:52:47;;;;;;;3.97;0.35;;;11.40;99.90;;;;;;5053011;28;20040;-93
2022/05/30 07:55:13;;;;;;;3.70;0.70;;;10.50;99.90;;;;;;5069404;28;20127;-84
2022/05/30 07:57:51;;;;;;;1.10;0.52;;;10.60;99.90;;;;;;5066910;28;20036;-75
2022/05/30 08:00:18;;;;;;;5.28;0.85;;;11.60;99.90;;;;;;5069851;28;20078;-86
2022/05/30 08:02:44;;;;;;;1.98;0.20;;;10.60;99.90;;;;;;5069272;28;20076;-76
2022/05/30 08:05:12;;;;;;;2.10;0.20;;;11.20;99.90;;;;;;5053380;28;20076;-75
2022/05/30 08:07:39;;;;;;;2.08;0.22;;;12.40;99.90;;;;;;5052438;28;20109;-89
2022/05/30 08:10:06;;;;;;;2.90;0.40;;;10.70;99.90;;;;;;5068777;28;20048;-91
2022/05/30 08:12:32;;;;;;;4.97;0.30;;;10.70;99.90;;;;;;5067717;28;20049;-78
2022/05/30 08:14:59;;;;;;;3.05;0.73;;;12.20;99.90;;;;;;5069408;28;20051;-84
2022/05/30 08:17:25;;;;;;;1.50;0.10;;;11.00;99.90;;;;;;5069398;28;20033;-77
2022/05/30 08:19:51;;;;;;;0.45;0.00;;;11.20;99.90;;;;;;5071584;28;20040;-93
2022/05/30 08:22:16;;;;;;;0.30;0.00;;;10.80;99.90;;;;;;5069256;28;20040;-92
2022/05/30 08:24:47;;;;;;;0.22;0.00;;;11.10;99.90;;;;;;5070117;28;20543;-91
2022/05/30 08:27:14;;;;;;;0.80;0.30;;;12.40;99.90;;;;;;5052904;28;20166;-90
2022/05/30 08:29:42;;;;;;;6.18;0.80;;;10.90;99.90;;;;;;5052294;28;20141;-87
2022/05/30 08:32:08;;;;;;;3.63;0.43;;;10.80;99.90;;;;;;5070668;28;20159;-92
2022/05/30 08:34:36;;;;;;;2.15;0.20;;;10.70;99.90;;;;;;5075218;28;20068;-77
2022/05/30 08:37:03;;;;;;;0.98;0.20;;;10.60;99.90;;;;;;5055098;28;20059;-86
2022/05/30 08:42:13;;;;;;;0.73;0.00;;;9.90;99.90;;;;;;5070983;28;20040;-91
2022/05/30 08:44:40;;;;;;;2.22;0.20;;;10.40;99.90;;;;;;5070311;28;20051;-86
2022/05/30 08:47:24;;;;;;;1.05;0.30;;;10.10;99.90;;;;;;5067559;28;20394;-93
2022/05/30 08:49:52;;;;;;;;;;;10.40;99.90;;;;;;5054124;28;20094;-95
2022/05/30 08:52:38;;;;;;;0.25;0.03;;;10.40;99.90;;;;;;5074827;28;19921;-92
2022/05/30 08:55:04;;;;;;;1.05;0.10;;;10.40;99.90;;;;;;5070979;28;20044;-90
2022/05/30 08:58:02;;;;;;;0.90;0.00;;;11.50;99.90;;;;;;5071687;28;20044;-93
2022/05/30 09:00:48;;;;;;;1.20;0.10;;;10.40;99.90;;;;;;5039750;28;20044;-88
2022/05/30 09:03:44;;;;;;;1.02;0.10;;;10.50;99.90;;;;;;5054307;28;20135;-84
2022/05/30 09:06:26;;;;;;;0.75;0.10;;;10.50;99.90;;;;;;5061252;28;20040;-88
2022/05/30 09:08:55;;;;;;;2.35;0.17;;;10.60;99.90;;;;;;5063942;28;20434;-86
2022/05/30 09:11:24;;;;;;;0.90;0.17;;;10.60;99.90;;;;;;5066128;28;20048;-79
2022/05/30 09:13:51;;;;;;;1.05;0.10;;;10.70;99.90;;;;;;5057481;28;20033;-85
2022/05/30 09:16:30;;;;;;;5.10;0.30;;;10.70;99.90;;;;;;5069746;28;20123;-88
2022/05/30 09:18:58;;;;;;;0.50;0.13;;;10.70;99.90;;;;;;5048108;28;20040;-84
2022/05/30 09:21:27;;;;;;;0.88;0.30;;;10.70;99.90;;;;;;5068936;28;20515;-87
2022/05/30 09:23:53;;;;;;;0.70;0.20;;;10.80;99.90;;;;;;5051378;28;20032;-87
2022/05/30 09:26:22;;;;;;;1.80;0.20;;;10.80;99.90;;;;;;5068110;28;20480;-88
2022/05/30 09:28:50;;;;;;;3.70;0.17;;;10.90;99.90;;;;;;5068533;28;20048;-85
2022/05/30 09:31:40;;;;;;;1.83;0.22;;;10.90;99.90;;;;;;5070714;28;20075;-85
2022/05/30 09:34:53;;;;;;;1.27;0.22;;;11.00;99.90;;;;;;5047548;28;20044;-89
2022/05/30 09:37:31;;;;;;;1.08;0.20;;;11.10;99.90;;;;;;5064753;28;20052;-83
2022/05/30 09:39:58;;;;;;;0.75;0.22;;;11.20;99.90;;;;;;5048874;28;20047;-87
2022/05/30 09:42:30;;;;;;;1.65;0.20;;;11.20;99.90;;;;;;5052100;28;20029;-87
2022/05/30 09:45:27;;;;;;;1.88;0.30;;;11.20;99.90;;;;;;5066915;28;20056;-88
2022/05/30 09:48:19;;;;;;;3.30;0.70;;;11.20;99.90;;;;;;5066623;28;20082;-81
2022/05/30 09:50:50;;;;;;;3.13;0.60;;;11.20;99.90;;;;;;5050464;28;20143;-86
2022/05/30 09:53:38;;;;;;;1.30;0.20;;;11.20;99.90;;;;;;5067869;28;20040;-87
2022/05/30 09:56:04;;;;;;;3.40;0.50;;;11.20;99.90;;;;;;5062353;28;20052;-86
2022/05/30 09:58:59;;;;;;;1.65;0.28;;;11.20;99.90;;;;;;5051970;28;20049;-82
2022/05/30 10:01:25;;;;;;;;;;;11.20;99.90;;;;;;5068802;28;20487;-86
2022/05/30 10:03:59;;;;;;;1.23;0.32;;;12.50;99.90;;;;;;5051329;28;19920;-88
2022/05/30 10:06:26;;;;;;;;;;;11.30;99.90;;;;;;5052934;28;20028;-87
2022/05/30 10:09:07;;;;;;;0.50;0.50;;;11.40;99.90;;;;;;5066758;28;19924;-85
2022/05/30 10:11:35;;;;;;;1.95;0.30;;;11.50;99.90;;;;;;5068801;28;20040;-87
2022/05/30 10:14:17;;;;;;;1.45;0.30;;;11.80;99.90;;;;;;5061062;28;20424;-85
2022/05/30 10:16:45;;;;;;;1.23;0.50;;;11.80;99.90;;;;;;5066020;28;20041;-87
2022/05/30 10:19:31;;;;;;;3.72;0.80;;;11.90;99.90;;;;;;5067935;28;20036;-86
2022/05/30 10:28:33;;;;;;;2.30;0.40;;;12.30;99.90;;;;;;5072258;28;20044;-93
2022/05/30 10:31:14;;;;;;;3.78;0.45;;;11.80;99.90;;;;;;4716493;28;10000031;-91
2022/05/30 10:33:51;;;;;;;3.20;0.50;;;11.80;99.90;;;;;;5068015;28;20044;-91
2022/05/30 10:36:47;;;;;;;2.50;0.60;;;11.70;99.90;;;;;;5070557;28;20553;-85
2022/05/30 10:39:32;;;;;;;1.25;0.47;;;11.50;99.90;;;;;;5071827;28;20449;-90
2022/05/30 10:42:29;;;;;;;2.55;0.40;;;11.40;99.90;;;;;;5064302;28;20396;-90
2022/05/30 10:45:12;;;;;;;3.55;0.30;;;11.20;99.90;;;;;;5051533;28;20050;-85
2022/05/30 10:47:45;;;;;;;2.10;0.30;;;11.00;99.90;;;;;;5069822;28;20052;-84
2022/05/30 10:50:18;;;;;;;2.72;0.43;;;11.00;99.90;;;;;;5085691;28;20155;-84
2022/05/30 10:53:03;;;;;;;3.97;0.60;;;10.90;99.90;;;;;;5066832;28;20045;-87
2022/05/30 10:55:40;;;;;;;2.78;0.60;;;10.90;99.90;;;;;;5034759;28;20488;-87
2022/05/30 10:58:46;;;;;;;3.40;0.50;;;10.90;99.90;;;;;;5063858;28;20086;-89
2022/05/30 11:01:14;;;;;;;;;;;10.90;99.90;;;;;;5034285;28;20205;-81
2022/05/30 11:03:46;;;;;;;1.63;0.68;;;10.80;99.90;;;;;;5067127;28;19920;-84
2022/05/30 11:06:27;;;;;;;3.10;0.50;;;10.80;99.90;;;;;;5066693;28;20044;-86
2022/05/30 11:09:02;;;;;;;17.35;13.05;;;10.80;99.90;;;;;;5066132;28;20040;-87
2022/05/30 11:12:19;;;;;;;9.40;6.72;;;10.90;99.90;;;;;;5049634;28;20121;-85
2022/05/30 11:15:02;;;;;;;1.80;0.60;;;10.90;99.90;;;;;;5060588;28;20508;-83
2022/05/30 11:17:36;;;;;;;1.48;0.28;;;10.90;99.90;;;;;;5067717;28;20036;-84
2022/05/30 11:20:09;;;;;;;1.25;0.50;;;10.90;99.90;;;;;;5066389;28;20396;-87
2022/05/30 11:22:41;;;;;;;1.25;0.75;;;11.00;99.90;;;;;;5067034;28;20110;-82
2022/05/30 11:25:12;;;;;;;1.60;0.38;;;10.90;99.90;;;;;;5063071;28;20037;-81
2022/05/30 11:27:42;;;;;;;0.75;0.15;;;10.60;99.90;;;;;;5066368;28;20102;-86
2022/05/30 11:30:31;;;;;;;4.38;3.97;;;11.00;99.90;;;;;;5047479;28;20484;-91
2022/05/30 11:33:02;;;;;;;1.98;0.82;;;11.10;99.90;;;;;;5068883;28;20064;-91
2022/05/30 11:35:37;;;;;;;2.17;0.77;;;11.10;99.90;;;;;;5072457;28;20492;-91
2022/05/30 11:38:18;;;;;;;1.48;0.30;;;11.20;99.90;;;;;;5070379;28;20059;-92
2022/05/30 11:41:13;;;;;;;5.25;0.30;;;11.20;99.90;;;;;;5069704;28;20091;-92
2022/05/30 11:43:55;;;;;;;0.95;0.28;;;11.30;99.90;;;;;;5087568;28;20102;-83
2022/05/30 11:46:31;;;;;;;0.68;0.30;;;11.40;99.90;;;;;;5067997;28;20522;-90
2022/05/30 11:49:14;;;;;;;1.73;0.30;;;11.70;99.90;;;;;;5087673;28;20052;-87
2022/05/30 11:51:55;;;;;;;0.80;0.30;;;11.80;99.90;;;;;;5053168;28;20082;-89
2022/05/30 11:54:35;;;;;;;2.10;0.65;;;12.10;99.90;;;;;;5069687;28;20129;-91
2022/05/30 11:57:27;;;;;;;1.17;0.20;;;12.30;99.90;;;;;;5071062;28;20048;-84
2022/05/30 12:00:20;;;;;;;1.85;0.20;;;12.50;99.90;;;;;;5069212;28;20480;-92
2022/05/30 12:02:58;;;;;;;0.90;0.30;;;12.60;99.90;;;;;;5062852;28;20033;-89
2022/05/30 12:05:45;;;;;;;1.77;0.30;;;12.50;99.90;;;;;;5065216;28;20060;-81
2022/05/30 12:08:23;;;;;;;0.80;0.30;;;12.40;99.90;;;;;;5051346;28;20133;-86
2022/05/30 12:11:24;;;;;;;1.95;0.47;;;12.30;99.90;;;;;;5068567;28;20143;-91
2022/05/30 12:14:06;;;;;;;1.33;0.20;;;12.30;99.90;;;;;;5052510;28;20064;-92
2022/05/30 12:16:48;;;;;;;1.67;0.20;;;12.20;99.90;;;;;;5071384;28;20041;-93
2022/05/30 12:24:59;;;;;;;2.10;0.20;;;13.20;99.90;;;;;;5071296;28;20045;-91
2022/05/30 12:27:28;;;;;;;1.35;0.40;;;11.90;99.90;;;;;;5067470;28;20044;-91
2022/05/30 12:29:54;;;;;;;1.48;0.20;;;11.80;99.90;;;;;;5050623;28;20044;-85
2022/05/30 12:32:29;;;;;;;1.73;0.20;;;12.80;99.90;;;;;;5071692;28;20405;-88
2022/05/30 12:34:57;;;;;;;;;;;11.80;99.90;;;;;;5055336;28;20087;-93
2022/05/30 12:37:44;;;;;;;1.65;0.28;;;11.80;99.90;;;;;;5053649;28;20375;-92
2022/05/30 12:40:22;;;;;;;1.17;0.47;;;11.80;99.90;;;;;;5081906;28;20492;-85
2022/05/30 12:43:14;;;;;;;9.57;6.82;;;11.80;99.90;;;;;;5066062;28;20400;-88
2022/05/30 12:45:45;;;;;;;2.53;1.80;;;11.90;99.90;;;;;;5068519;28;20048;-88
2022/05/30 12:48:17;;;;;;;1.92;0.47;;;13.30;99.90;;;;;;5081020;28;20031;-77
2022/05/30 12:51:12;;;;;;;0.57;0.43;;;11.90;99.90;;;;;;5074140;28;20040;-89
2022/05/30 12:53:59;;;;;;;;;;;11.90;99.90;;;;;;5068945;28;20040;-79
2022/05/30 12:56:37;;;;;;;1.02;0.40;;;12.00;99.90;;;;;;5074327;28;20291;-90
2022/05/30 12:59:02;;;;;;;3.20;0.50;;;12.00;99.90;;;;;;5061064;28;20036;-75
2022/05/30 13:01:48;;;;;;;3.55;1.33;;;12.00;99.90;;;;;;5079557;28;20082;-85
2022/05/30 13:04:25;;;;;;;0.63;0.50;;;12.50;99.90;;;;;;5070582;28;20044;-92
2022/05/30 13:06:56;;;;;;;1.60;0.30;;;13.60;99.90;;;;;;5052175;28;20048;-94
2022/05/30 13:09:37;;;;;;;2.97;0.30;;;11.60;99.90;;;;;;5061329;28;20105;-78
2022/05/30 13:12:51;;;;;;;1.60;0.32;;;11.90;99.90;;;;;;5060840;28;20044;-84
2022/05/30 13:15:23;;;;;;;1.27;0.30;;;11.80;99.90;;;;;;5044742;28;20032;-89
2022/05/30 13:17:57;;;;;;;1.58;0.30;;;11.80;99.90;;;;;;5066576;22;20047;-92
2022/05/30 13:20:55;;;;;;;4.25;0.57;;;11.80;99.90;;;;;;5045560;28;20053;-85
2022/05/30 13:23:32;;;;;;;1.05;0.30;;;11.80;99.90;;;;;;5038545;28;20060;-82
2022/05/30 13:25:58;;;;;;;49.50;39.70;;;11.80;99.90;;;;;;5040885;28;20124;-88
2022/05/30 13:28:24;;;;;;;3.53;2.90;;;11.80;99.90;;;;;;5050371;28;20082;-82
2022/05/30 13:30:52;;;;;;;0.52;0.35;;;11.80;99.90;;;;;;5046607;28;20048;-85
2022/05/30 13:33:25;;;;;;;0.52;0.30;;;11.80;99.90;;;;;;5029277;28;20056;-79
2022/05/30 13:35:57;;;;;;;0.45;0.30;;;11.90;99.90;;;;;;5032171;28;20434;-85
2022/05/30 13:38:38;;;;;;;1.58;0.38;;;11.90;99.90;;;;;;5041552;28;20041;-87
2022/05/30 13:41:15;;;;;;;1.90;0.40;;;11.90;99.90;;;;;;5047895;28;20040;-92